createdAt,value
2016-05-08T00:00:12.741Z,1004.08
2016-05-08T00:01:12.729Z,1004.13
2016-05-08T00:02:12.715Z,1004.11
2016-05-08T00:03:12.718Z,1004.09
2016-05-08T00:04:12.705Z,1004.12
2016-05-08T00:05:12.693Z,1004.12
2016-05-08T00:06:12.679Z,1004.1
2016-05-08T00:07:12.666Z,1004.07
2016-05-08T00:08:12.654Z,1004.14
2016-05-08T00:09:12.640Z,1004.15
2016-05-08T00:10:12.643Z,1004.15
2016-05-08T00:11:12.631Z,1004.1
2016-05-08T00:12:12.617Z,1004.09
2016-05-08T00:13:12.604Z,1004.11
2016-05-08T00:14:12.592Z,1004.07
2016-05-08T00:15:12.594Z,1004.11
2016-05-08T00:16:12.581Z,1004.09
2016-05-08T00:17:12.568Z,1004.09
2016-05-08T00:18:12.556Z,1004.1
2016-05-08T00:19:12.542Z,1004.15
2016-05-08T00:20:12.530Z,1004.08
2016-05-08T00:21:12.532Z,1004.09
2016-05-08T00:22:12.519Z,1004.11
2016-05-08T00:23:12.507Z,1004.1
2016-05-08T00:24:12.501Z,1004.09
2016-05-08T00:25:12.488Z,1004.09
2016-05-08T00:26:12.474Z,1004.07
2016-05-08T00:27:12.462Z,1004.08
2016-05-08T00:28:12.448Z,1004.09
2016-05-08T00:29:12.452Z,1004.07
2016-05-08T00:30:12.438Z,1004.1
2016-05-08T00:31:12.426Z,1004.1
2016-05-08T00:32:12.413Z,1004.1
2016-05-08T00:33:12.400Z,1004.04
2016-05-08T00:34:12.386Z,1004.08
2016-05-08T00:35:12.576Z,1004.08
2016-05-08T00:36:12.376Z,1004.08
2016-05-08T00:37:12.364Z,1004.06
2016-05-08T00:38:12.351Z,1004.07
2016-05-08T00:39:12.337Z,1004.04
2016-05-08T00:40:12.325Z,1004.06
2016-05-08T00:41:12.311Z,1004.07
2016-05-08T00:42:12.314Z,1004.04
2016-05-08T00:43:12.302Z,1004.05
2016-05-08T00:44:12.289Z,1004.08
2016-05-08T00:45:12.275Z,1004.06
2016-05-08T00:46:12.263Z,1004.04
2016-05-08T00:47:12.250Z,1004.07
2016-05-08T00:48:12.253Z,1004.07
2016-05-08T00:49:12.239Z,1004.08
2016-05-08T00:50:12.227Z,1004.07
2016-05-08T00:51:12.213Z,1004.1
2016-05-08T00:52:12.201Z,1004.08
2016-05-08T00:53:12.203Z,1004.12
2016-05-08T00:54:12.175Z,1004.12
2016-05-08T00:55:12.162Z,1004.11
2016-05-08T00:56:12.165Z,1004.11
2016-05-08T00:57:12.151Z,1004.11
2016-05-08T00:58:12.138Z,1004.11
2016-05-08T00:59:12.125Z,1004.13
2016-05-08T01:00:12.113Z,1004.12
2016-05-08T01:01:12.116Z,1004.1
2016-05-08T01:02:12.103Z,1004.13
2016-05-08T01:03:12.089Z,1004.11
2016-05-08T01:04:12.077Z,1004.11
2016-05-08T01:05:12.064Z,1004.12
2016-05-08T01:06:12.051Z,1004.13
2016-05-08T01:07:12.038Z,1004.13
2016-05-08T01:08:12.040Z,1004.13
2016-05-08T01:09:12.027Z,1004.17
2016-05-08T01:10:12.014Z,1004.15
2016-05-08T01:11:12.002Z,1004.18
2016-05-08T01:12:11.989Z,1004.19
2016-05-08T01:13:11.976Z,1004.16
2016-05-08T01:14:11.978Z,1004.17
2016-05-08T01:15:11.950Z,1004.2
2016-05-08T01:16:11.953Z,1004.19
2016-05-08T01:17:11.940Z,1004.2
2016-05-08T01:18:11.927Z,1004.23
2016-05-08T01:19:11.914Z,1004.22
2016-05-08T01:20:11.901Z,1004.2
2016-05-08T01:21:11.888Z,1004.22
2016-05-08T01:22:11.875Z,1004.29
2016-05-08T01:23:11.878Z,1004.2
2016-05-08T01:24:11.865Z,1004.25
2016-05-08T01:25:11.853Z,1004.24
2016-05-08T01:26:11.855Z,1004.19
2016-05-08T01:27:11.827Z,1004.2
2016-05-08T01:28:11.813Z,1004.2
2016-05-08T01:29:11.802Z,1004.23
2016-05-08T01:30:11.788Z,1004.21
2016-05-08T01:31:11.791Z,1004.19
2016-05-08T01:32:11.777Z,1004.19
2016-05-08T01:33:11.766Z,1004.19
2016-05-08T01:34:11.752Z,1004.21
2016-05-08T01:35:11.739Z,1004.23
2016-05-08T01:36:11.726Z,1004.2
2016-05-08T01:37:11.713Z,1004.2
2016-05-08T01:38:11.700Z,1004.21
2016-05-08T01:39:11.704Z,1004.22
2016-05-08T01:40:11.690Z,1004.22
2016-05-08T01:41:11.677Z,1004.24
2016-05-08T01:42:11.664Z,1004.22
2016-05-08T01:43:11.651Z,1004.24
2016-05-08T01:44:11.638Z,1004.27
2016-05-08T01:45:11.626Z,1004.28
2016-05-08T01:46:11.628Z,1004.27
2016-05-08T01:47:11.600Z,1004.27
2016-05-08T01:48:11.603Z,1004.27
2016-05-08T01:49:11.589Z,1004.23
2016-05-08T01:50:11.576Z,1004.28
2016-05-08T01:51:11.564Z,1004.26
2016-05-08T01:52:11.550Z,1004.22
2016-05-08T01:53:11.537Z,1004.25
2016-05-08T01:54:11.525Z,1004.24
2016-05-08T01:55:11.512Z,1004.23
2016-05-08T01:56:11.499Z,1004.22
2016-05-08T01:57:12.080Z,1004.27
2016-05-08T01:58:11.488Z,1004.25
2016-05-08T01:59:11.475Z,1004.24
2016-05-08T02:00:11.463Z,1004.28
2016-05-08T02:01:11.450Z,1004.23
2016-05-08T02:02:11.437Z,1004.25
2016-05-08T02:03:11.424Z,1004.28
2016-05-08T02:04:11.426Z,1004.24
2016-05-08T02:05:11.413Z,1004.24
2016-05-08T02:06:11.401Z,1004.25
2016-05-08T02:07:11.388Z,1004.22
2016-05-08T02:08:11.375Z,1004.24
2016-05-08T02:09:11.362Z,1004.25
2016-05-08T02:10:11.348Z,1004.22
2016-05-08T02:11:11.336Z,1004.25
2016-05-08T02:12:11.324Z,1004.26
2016-05-08T02:13:11.310Z,1004.28
2016-05-08T02:14:11.313Z,1004.33
2016-05-08T02:15:11.300Z,1004.28
2016-05-08T02:16:11.287Z,1004.28
2016-05-08T02:17:11.273Z,1004.28
2016-05-08T02:18:11.262Z,1004.31
2016-05-08T02:19:11.248Z,1004.29
2016-05-08T02:20:11.235Z,1004.25
2016-05-08T02:21:11.222Z,1004.23
2016-05-08T02:22:11.209Z,1004.22
2016-05-08T02:23:11.197Z,1004.19
2016-05-08T02:24:11.184Z,1004.17
2016-05-08T02:25:11.170Z,1004.2
2016-05-08T02:26:11.158Z,1004.17
2016-05-08T02:27:11.160Z,1004.19
2016-05-08T02:28:11.131Z,1004.14
2016-05-08T02:29:11.134Z,1004.17
2016-05-08T02:30:11.122Z,1004.16
2016-05-08T02:31:11.108Z,1004.15
2016-05-08T02:32:11.096Z,1004.21
2016-05-08T02:33:11.083Z,1004.18
2016-05-08T02:34:11.069Z,1004.15
2016-05-08T02:35:11.260Z,1004.16
2016-05-08T02:36:11.044Z,1004.15
2016-05-08T02:37:11.030Z,1004.2
2016-05-08T02:38:11.033Z,1004.22
2016-05-08T02:39:11.005Z,1004.19
2016-05-08T02:40:11.007Z,1004.2
2016-05-08T02:41:10.995Z,1004.17
2016-05-08T02:42:11.015Z,1004.19
2016-05-08T02:43:11.048Z,1004.19
2016-05-08T02:44:11.083Z,1004.19
2016-05-08T02:45:11.134Z,1004.24
2016-05-08T02:46:11.152Z,1004.21
2016-05-08T02:47:11.167Z,1004.18
2016-05-08T02:48:11.172Z,1004.24
2016-05-08T02:49:11.176Z,1004.2
2016-05-08T02:50:11.180Z,1004.27
2016-05-08T02:51:11.184Z,1004.27
2016-05-08T02:52:11.196Z,1004.25
2016-05-08T02:53:11.174Z,1004.29
2016-05-08T02:54:11.184Z,1004.28
2016-05-08T02:55:11.176Z,1004.3
2016-05-08T02:56:11.153Z,1004.3
2016-05-08T02:57:11.160Z,1004.28
2016-05-08T02:58:11.150Z,1004.28
2016-05-08T02:59:11.139Z,1004.27
2016-05-08T03:00:11.128Z,1004.29
2016-05-08T03:01:11.118Z,1004.27
2016-05-08T03:02:11.106Z,1004.31
2016-05-08T03:03:11.093Z,1004.27
2016-05-08T03:04:11.081Z,1004.28
2016-05-08T03:05:11.069Z,1004.3
2016-05-08T03:06:11.058Z,1004.27
2016-05-08T03:07:11.045Z,1004.28
2016-05-08T03:08:11.032Z,1004.3
2016-05-08T03:09:11.020Z,1004.24
2016-05-08T03:10:11.007Z,1004.23
2016-05-08T03:11:10.994Z,1004.26
2016-05-08T03:12:10.982Z,1004.26
2016-05-08T03:13:10.985Z,1004.24
2016-05-08T03:14:10.956Z,1004.24
2016-05-08T03:15:10.959Z,1004.25
2016-05-08T03:16:10.945Z,1004.24
2016-05-08T03:17:10.933Z,1004.3
2016-05-08T03:18:10.920Z,1004.28
2016-05-08T03:19:10.907Z,1004.27
2016-05-08T03:20:10.893Z,1004.24
2016-05-08T03:21:10.882Z,1004.2
2016-05-08T03:22:10.868Z,1004.2
2016-05-08T03:23:10.856Z,1004.23
2016-05-08T03:24:10.842Z,1004.25
2016-05-08T03:25:10.829Z,1004.24
2016-05-08T03:26:10.816Z,1004.27
2016-05-08T03:27:10.804Z,1004.28
2016-05-08T03:28:10.806Z,1004.26
2016-05-08T03:29:10.778Z,1004.27
2016-05-08T03:30:10.764Z,1004.31
2016-05-08T03:31:10.753Z,1004.3
2016-05-08T03:32:10.738Z,1004.33
2016-05-08T03:33:10.726Z,1004.35
2016-05-08T03:34:10.713Z,1004.35
2016-05-08T03:35:10.699Z,1004.36
2016-05-08T03:36:10.687Z,1004.36
2016-05-08T03:37:10.674Z,1004.36
2016-05-08T03:38:10.661Z,1004.36
2016-05-08T03:39:10.648Z,1004.37
2016-05-08T03:40:10.635Z,1004.4
2016-05-08T03:41:10.622Z,1004.43
2016-05-08T03:42:10.624Z,1004.44
2016-05-08T03:43:10.597Z,1004.45
2016-05-08T03:44:10.583Z,1004.42
2016-05-08T03:45:10.586Z,1004.47
2016-05-08T03:46:10.573Z,1004.49
2016-05-08T03:47:10.560Z,1004.45
2016-05-08T03:48:10.532Z,1004.49
2016-05-08T03:49:10.535Z,1004.52
2016-05-08T03:50:10.521Z,1004.53
2016-05-08T03:51:10.509Z,1004.49
2016-05-08T03:52:10.495Z,1004.53
2016-05-08T03:53:10.482Z,1004.51
2016-05-08T03:54:10.470Z,1004.5
2016-05-08T03:55:10.457Z,1004.52
2016-05-08T03:56:10.444Z,1004.53
2016-05-08T03:57:10.431Z,1004.57
2016-05-08T03:58:10.418Z,1004.6
2016-05-08T03:59:10.405Z,1004.6
2016-05-08T04:00:10.392Z,1004.61
2016-05-08T04:01:10.379Z,1004.56
2016-05-08T04:02:10.367Z,1004.58
2016-05-08T04:03:10.353Z,1004.62
2016-05-08T04:04:10.341Z,1004.62
2016-05-08T04:05:10.327Z,1004.58
2016-05-08T04:06:10.314Z,1004.59
2016-05-08T04:07:10.302Z,1004.61
2016-05-08T04:08:10.289Z,1004.57
2016-05-08T04:09:10.275Z,1004.57
2016-05-08T04:10:10.263Z,1004.58
2016-05-08T04:11:10.266Z,1004.59
2016-05-08T04:12:10.238Z,1004.63
2016-05-08T04:13:10.224Z,1004.59
2016-05-08T04:14:10.211Z,1004.61
2016-05-08T04:15:10.198Z,1004.63
2016-05-08T04:16:10.201Z,1004.62
2016-05-08T04:17:10.172Z,1004.63
2016-05-08T04:18:10.160Z,1004.64
2016-05-08T04:19:10.146Z,1004.64
2016-05-08T04:20:10.134Z,1004.62
2016-05-08T04:21:10.121Z,1004.65
2016-05-08T04:22:10.124Z,1004.65
2016-05-08T04:23:10.095Z,1004.65
2016-05-08T04:24:10.081Z,1004.67
2016-05-08T04:25:10.084Z,1004.67
2016-05-08T04:26:10.071Z,1004.66
2016-05-08T04:27:10.059Z,1004.67
2016-05-08T04:28:10.046Z,1004.71
2016-05-08T04:29:10.033Z,1004.7
2016-05-08T04:30:10.019Z,1004.72
2016-05-08T04:31:10.006Z,1004.77
2016-05-08T04:32:09.995Z,1004.77
2016-05-08T04:33:09.981Z,1004.79
2016-05-08T04:34:09.967Z,1004.75
2016-05-08T04:35:10.158Z,1004.77
2016-05-08T04:36:09.941Z,1004.76
2016-05-08T04:37:09.930Z,1004.73
2016-05-08T04:38:09.916Z,1004.75
2016-05-08T04:39:09.903Z,1004.74
2016-05-08T04:40:09.890Z,1004.75
2016-05-08T04:41:09.878Z,1004.72
2016-05-08T04:42:09.864Z,1004.74
2016-05-08T04:43:09.851Z,1004.75
2016-05-08T04:44:09.838Z,1004.73
2016-05-08T04:45:09.827Z,1004.74
2016-05-08T04:46:09.812Z,1004.77
2016-05-08T04:47:09.800Z,1004.71
2016-05-08T04:48:09.787Z,1004.77
2016-05-08T04:49:09.773Z,1004.78
2016-05-08T04:50:09.760Z,1004.8
2016-05-08T04:51:09.749Z,1004.8
2016-05-08T04:52:09.735Z,1004.81
2016-05-08T04:53:09.738Z,1004.76
2016-05-08T04:54:09.709Z,1004.8
2016-05-08T04:55:09.696Z,1004.8
2016-05-08T04:56:09.683Z,1004.77
2016-05-08T04:57:09.671Z,1004.81
2016-05-08T04:58:09.673Z,1004.81
2016-05-08T04:59:09.659Z,1004.79
2016-05-08T05:00:09.631Z,1004.82
2016-05-08T05:01:09.619Z,1004.8
2016-05-08T05:02:09.622Z,1004.84
2016-05-08T05:03:09.593Z,1004.78
2016-05-08T05:04:09.595Z,1004.84
2016-05-08T05:05:09.583Z,1004.83
2016-05-08T05:06:09.553Z,1004.84
2016-05-08T05:07:09.556Z,1004.86
2016-05-08T05:08:09.544Z,1004.84
2016-05-08T05:09:09.531Z,1004.85
2016-05-08T05:10:09.518Z,1004.87
2016-05-08T05:11:09.505Z,1004.88
2016-05-08T05:12:09.492Z,1004.88
2016-05-08T05:13:09.479Z,1004.89
2016-05-08T05:14:09.466Z,1004.88
2016-05-08T05:15:09.453Z,1004.88
2016-05-08T05:16:09.440Z,1004.9
2016-05-08T05:17:09.427Z,1004.93
2016-05-08T05:18:09.415Z,1004.89
2016-05-08T05:19:09.401Z,1004.91
2016-05-08T05:20:09.388Z,1004.93
2016-05-08T05:21:09.376Z,1004.91
2016-05-08T05:22:09.363Z,1004.92
2016-05-08T05:23:09.349Z,1004.95
2016-05-08T05:24:09.352Z,1004.97
2016-05-08T05:25:09.340Z,1004.97
2016-05-08T05:26:09.343Z,1004.95
2016-05-08T05:27:09.314Z,1004.97
2016-05-08T05:28:09.301Z,1005
2016-05-08T05:29:09.287Z,1005
2016-05-08T05:30:09.275Z,1005
2016-05-08T05:31:09.262Z,1005.01
2016-05-08T05:32:09.249Z,1005.01
2016-05-08T05:33:09.236Z,1005.03
2016-05-08T05:34:09.223Z,1005.08
2016-05-08T05:35:09.226Z,1005.07
2016-05-08T05:36:09.198Z,1005.06
2016-05-08T05:37:09.184Z,1005.06
2016-05-08T05:38:09.171Z,1005.05
2016-05-08T05:39:09.158Z,1005.07
2016-05-08T05:40:09.145Z,1005.1
2016-05-08T05:41:09.148Z,1005.12
2016-05-08T05:42:09.136Z,1005.1
2016-05-08T05:43:09.122Z,1005.09
2016-05-08T05:44:09.109Z,1005.1
2016-05-08T05:45:09.096Z,1005.11
2016-05-08T05:46:09.084Z,1005.11
2016-05-08T05:47:09.071Z,1005.12
2016-05-08T05:48:09.058Z,1005.11
2016-05-08T05:49:09.044Z,1005.15
2016-05-08T05:50:09.032Z,1005.17
2016-05-08T05:51:09.018Z,1005.19
2016-05-08T05:52:09.007Z,1005.21
2016-05-08T05:53:08.993Z,1005.23
2016-05-08T05:54:08.980Z,1005.21
2016-05-08T05:55:08.982Z,1005.18
2016-05-08T05:56:08.970Z,1005.21
2016-05-08T05:57:08.956Z,1005.21
2016-05-08T05:58:08.943Z,1005.19
2016-05-08T05:59:08.931Z,1005.18
2016-05-08T06:00:08.918Z,1005.17
2016-05-08T06:01:08.905Z,1005.19
2016-05-08T06:02:08.892Z,1005.21
2016-05-08T06:03:08.879Z,1005.23
2016-05-08T06:04:08.867Z,1005.22
2016-05-08T06:05:08.854Z,1005.24
2016-05-08T06:06:08.840Z,1005.22
2016-05-08T06:07:08.842Z,1005.22
2016-05-08T06:08:08.830Z,1005.22
2016-05-08T06:09:08.817Z,1005.2
2016-05-08T06:10:08.804Z,1005.28
2016-05-08T06:11:08.792Z,1005.32
2016-05-08T06:12:08.794Z,1005.28
2016-05-08T06:13:08.766Z,1005.29
2016-05-08T06:14:08.769Z,1005.33
2016-05-08T06:15:08.755Z,1005.31
2016-05-08T06:16:08.742Z,1005.34
2016-05-08T06:17:08.729Z,1005.33
2016-05-08T06:18:08.716Z,1005.36
2016-05-08T06:19:08.704Z,1005.39
2016-05-08T06:20:08.691Z,1005.36
2016-05-08T06:21:08.677Z,1005.36
2016-05-08T06:22:08.680Z,1005.37
2016-05-08T06:23:08.667Z,1005.38
2016-05-08T06:24:08.654Z,1005.35
2016-05-08T06:25:08.641Z,1005.36
2016-05-08T06:26:08.628Z,1005.41
2016-05-08T06:27:08.616Z,1005.37
2016-05-08T06:28:08.603Z,1005.35
2016-05-08T06:29:08.590Z,1005.41
2016-05-08T06:30:08.592Z,1005.39
2016-05-08T06:31:08.579Z,1005.39
2016-05-08T06:32:08.567Z,1005.4
2016-05-08T06:33:08.553Z,1005.4
2016-05-08T06:34:08.540Z,1005.43
2016-05-08T06:35:08.528Z,1005.45
2016-05-08T06:36:08.515Z,1005.44
2016-05-08T06:37:08.517Z,1005.45
2016-05-08T06:38:08.505Z,1005.48
2016-05-08T06:39:08.491Z,1005.45
2016-05-08T06:40:08.478Z,1005.48
2016-05-08T06:41:08.466Z,1005.45
2016-05-08T06:42:08.469Z,1005.47
2016-05-08T06:43:08.456Z,1005.5
2016-05-08T06:44:08.442Z,1005.48
2016-05-08T06:45:08.430Z,1005.48
2016-05-08T06:46:08.417Z,1005.5
2016-05-08T06:47:08.404Z,1005.55
2016-05-08T06:48:08.407Z,1005.52
2016-05-08T06:49:08.410Z,1005.55
2016-05-08T06:50:08.380Z,1005.54
2016-05-08T06:51:08.399Z,1005.53
2016-05-08T06:52:08.355Z,1005.54
2016-05-08T06:53:08.358Z,1005.56
2016-05-08T06:54:08.344Z,1005.56
2016-05-08T06:55:08.332Z,1005.58
2016-05-08T06:56:08.318Z,1005.56
2016-05-08T06:57:08.306Z,1005.6
2016-05-08T06:58:08.308Z,1005.61
2016-05-08T06:59:08.295Z,1005.58
2016-05-08T07:00:08.282Z,1005.61
2016-05-08T07:01:08.270Z,1005.61
2016-05-08T07:02:08.273Z,1005.6
2016-05-08T07:03:08.259Z,1005.63
2016-05-08T07:04:08.246Z,1005.64
2016-05-08T07:05:08.234Z,1005.61
2016-05-08T07:06:08.220Z,1005.63
2016-05-08T07:07:08.223Z,1005.59
2016-05-08T07:08:08.210Z,1005.65
2016-05-08T07:09:08.197Z,1005.62
2016-05-08T07:10:08.184Z,1005.63
2016-05-08T07:11:08.186Z,1005.65
2016-05-08T07:12:08.174Z,1005.68
2016-05-08T07:13:08.161Z,1005.67
2016-05-08T07:14:08.148Z,1005.73
2016-05-08T07:15:08.136Z,1005.73
2016-05-08T07:16:08.138Z,1005.7
2016-05-08T07:17:08.125Z,1005.73
2016-05-08T07:18:08.112Z,1005.69
2016-05-08T07:19:08.115Z,1005.74
2016-05-08T07:20:08.102Z,1005.7
2016-05-08T07:21:08.088Z,1005.74
2016-05-08T07:22:08.077Z,1005.75
2016-05-08T07:23:08.079Z,1005.73
2016-05-08T07:24:08.082Z,1005.72
2016-05-08T07:25:08.053Z,1005.75
2016-05-08T07:26:08.040Z,1005.74
2016-05-08T07:27:08.043Z,1005.74
2016-05-08T07:28:08.374Z,1005.73
2016-05-08T07:29:08.032Z,1005.77
2016-05-08T07:30:08.019Z,1005.74
2016-05-08T07:31:08.007Z,1005.77
2016-05-08T07:32:07.993Z,1005.77
2016-05-08T07:33:07.996Z,1005.81
2016-05-08T07:34:07.984Z,1005.8
2016-05-08T07:35:07.986Z,1005.81
2016-05-08T07:36:07.989Z,1005.81
2016-05-08T07:37:07.960Z,1005.82
2016-05-08T07:38:07.963Z,1005.87
2016-05-08T07:39:07.965Z,1005.88
2016-05-08T07:40:07.952Z,1005.89
2016-05-08T07:41:07.940Z,1005.83
2016-05-08T07:42:07.942Z,1005.85
2016-05-08T07:43:07.930Z,1005.84
2016-05-08T07:44:07.932Z,1005.9
2016-05-08T07:45:07.919Z,1005.9
2016-05-08T07:46:07.922Z,1005.9
2016-05-08T07:47:07.909Z,1005.9
2016-05-08T07:48:07.896Z,1005.88
2016-05-08T07:49:07.898Z,1005.95
2016-05-08T07:50:07.885Z,1005.95
2016-05-08T07:51:07.888Z,1005.92
2016-05-08T07:52:07.875Z,1005.97
2016-05-08T07:53:07.878Z,1005.98
2016-05-08T07:54:07.865Z,1005.94
2016-05-08T07:55:07.868Z,1005.94
2016-05-08T07:56:07.855Z,1005.92
2016-05-08T07:57:07.857Z,1005.97
2016-05-08T07:58:07.876Z,1005.9
2016-05-08T07:59:07.848Z,1005.91
2016-05-08T08:00:07.834Z,1005.88
2016-05-08T08:01:07.837Z,1005.92
2016-05-08T08:02:07.840Z,1005.97
2016-05-08T08:03:07.826Z,1005.88
2016-05-08T08:04:07.814Z,1005.93
2016-05-08T08:05:07.817Z,1005.93
2016-05-08T08:06:07.804Z,1005.93
2016-05-08T08:07:07.806Z,1005.97
2016-05-08T08:08:07.809Z,1005.94
2016-05-08T08:09:07.796Z,1005.97
2016-05-08T08:10:07.783Z,1006
2016-05-08T08:11:07.786Z,1005.96
2016-05-08T08:12:07.789Z,1005.93
2016-05-08T08:13:08.353Z,1006.06
2016-05-08T08:14:07.763Z,1006.03
2016-05-08T08:15:07.781Z,1006.02
2016-05-08T08:16:07.769Z,1006.01
2016-05-08T08:17:07.771Z,1006
2016-05-08T08:18:07.758Z,1006
2016-05-08T08:19:07.761Z,1006
2016-05-08T08:20:07.763Z,1005.99
2016-05-08T08:21:07.750Z,1006
2016-05-08T08:22:07.753Z,1006.04
2016-05-08T08:23:07.755Z,1006.08
2016-05-08T08:24:07.758Z,1005.96
2016-05-08T08:25:07.746Z,1006.08
2016-05-08T08:26:07.748Z,1006.07
2016-05-08T08:27:07.751Z,1006.02
2016-05-08T08:28:07.754Z,1006.09
2016-05-08T08:29:07.757Z,1006.08
2016-05-08T08:30:07.759Z,1006.05
2016-05-08T08:31:07.746Z,1006.05
2016-05-08T08:32:07.749Z,1006.11
2016-05-08T08:33:07.751Z,1006.08
2016-05-08T08:34:07.754Z,1006.1
2016-05-08T08:35:07.756Z,1006.12
2016-05-08T08:36:07.962Z,1006.13
2016-05-08T08:37:07.762Z,1006.14
2016-05-08T08:38:07.765Z,1006.15
2016-05-08T08:39:07.767Z,1006.2
2016-05-08T08:40:07.770Z,1006.24
2016-05-08T08:41:07.773Z,1006.17
2016-05-08T08:42:07.776Z,1006.18
2016-05-08T08:43:07.778Z,1006.2
2016-05-08T08:44:07.780Z,1006.2
2016-05-08T08:45:07.783Z,1006.16
2016-05-08T08:46:07.786Z,1006.17
2016-05-08T08:47:07.789Z,1006.23
2016-05-08T08:48:07.791Z,1006.25
2016-05-08T08:49:07.794Z,1006.19
2016-05-08T08:50:07.797Z,1006.18
2016-05-08T08:51:07.800Z,1006.22
2016-05-08T08:52:07.802Z,1006.15
2016-05-08T08:53:07.805Z,1006.14
2016-05-08T08:54:07.807Z,1006.13
2016-05-08T08:55:07.810Z,1006.09
2016-05-08T08:56:07.813Z,1006.06
2016-05-08T08:57:07.815Z,1006.07
2016-05-08T08:58:07.819Z,1006.15
2016-05-08T08:59:07.837Z,1006.14
2016-05-08T09:00:07.824Z,1006.08
2016-05-08T09:01:07.827Z,1006.03
2016-05-08T09:02:07.829Z,1006.1
2016-05-08T09:03:07.832Z,1006.09
2016-05-08T09:04:07.834Z,1006.11
2016-05-08T09:05:07.837Z,1006.11
2016-05-08T09:06:07.840Z,1006.11
2016-05-08T09:07:07.842Z,1006.1
2016-05-08T09:08:07.846Z,1006.11
2016-05-08T09:09:07.848Z,1006.15
2016-05-08T09:10:07.850Z,1006.06
2016-05-08T09:11:07.854Z,1006.02
2016-05-08T09:12:07.840Z,1005.95
2016-05-08T09:13:07.843Z,1006.04
2016-05-08T09:14:07.861Z,1006.01
2016-05-08T09:15:07.848Z,1006
2016-05-08T09:16:07.851Z,1006.13
2016-05-08T09:17:07.853Z,1006.12
2016-05-08T09:18:07.856Z,1006.06
2016-05-08T09:19:07.858Z,1006.11
2016-05-08T09:20:07.847Z,1006.08
2016-05-08T09:21:07.850Z,1006.04
2016-05-08T09:22:07.852Z,1006.03
2016-05-08T09:23:07.855Z,1005.98
2016-05-08T09:24:07.857Z,1005.9
2016-05-08T09:25:07.860Z,1005.95
2016-05-08T09:26:07.878Z,1005.93
2016-05-08T09:27:07.849Z,1005.95
2016-05-08T09:28:07.852Z,1005.97
2016-05-08T09:29:07.855Z,1006
2016-05-08T09:30:07.858Z,1006.07
2016-05-08T09:31:07.860Z,1006.04
2016-05-08T09:32:07.863Z,1006.09
2016-05-08T09:33:07.865Z,1006.07
2016-05-08T09:34:07.854Z,1005.93
2016-05-08T09:35:07.856Z,1005.85
2016-05-08T09:36:07.858Z,1005.85
2016-05-08T09:37:07.861Z,1005.75
2016-05-08T09:38:14.145Z,1005.84
2016-05-08T09:39:07.867Z,1005.81
2016-05-08T09:40:07.869Z,1005.77
2016-05-08T09:41:07.856Z,1005.71
2016-05-08T09:42:07.859Z,1005.72
2016-05-08T09:43:07.861Z,1005.74
2016-05-08T09:44:07.864Z,1005.7
2016-05-08T09:45:07.866Z,1005.7
2016-05-08T09:46:07.869Z,1005.67
2016-05-08T09:47:07.857Z,1005.79
2016-05-08T09:48:07.859Z,1005.82
2016-05-08T09:49:07.862Z,1005.7
2016-05-08T09:50:07.864Z,1005.75
2016-05-08T09:51:07.852Z,1005.8
2016-05-08T09:52:07.855Z,1005.69
2016-05-08T09:53:07.857Z,1005.7
2016-05-08T09:54:07.860Z,1005.68
2016-05-08T09:55:07.862Z,1005.66
2016-05-08T09:56:07.850Z,1005.71
2016-05-08T09:57:07.852Z,1005.64
2016-05-08T09:58:07.855Z,1005.63
2016-05-08T09:59:07.858Z,1005.66
2016-05-08T10:00:07.860Z,1005.62
2016-05-08T10:01:07.863Z,1005.49
2016-05-08T10:02:07.849Z,1005.5
2016-05-08T10:03:07.852Z,1005.52
2016-05-08T10:04:07.855Z,1005.49
2016-05-08T10:05:07.858Z,1005.47
2016-05-08T10:06:07.845Z,1005.51
2016-05-08T10:07:07.848Z,1005.51
2016-05-08T10:08:07.851Z,1005.53
2016-05-08T10:09:07.853Z,1005.44
2016-05-08T10:10:07.840Z,1005.48
2016-05-08T10:11:07.842Z,1005.56
2016-05-08T10:12:07.845Z,1005.49
2016-05-08T10:13:09.521Z,1005.54
2016-05-08T10:14:07.850Z,1005.6
2016-05-08T10:15:07.839Z,1005.64
2016-05-08T10:16:07.841Z,1005.66
2016-05-08T10:17:07.844Z,1005.61
2016-05-08T10:18:07.847Z,1005.61
2016-05-08T10:19:07.849Z,1005.67
2016-05-08T10:20:07.852Z,1005.66
2016-05-08T10:21:07.855Z,1005.71
2016-05-08T10:22:07.857Z,1005.74
2016-05-08T10:23:07.860Z,1005.75
2016-05-08T10:24:07.858Z,1005.85
2016-05-08T10:25:07.861Z,1005.83
2016-05-08T10:26:07.863Z,1005.82
2016-05-08T10:27:07.866Z,1005.76
2016-05-08T10:28:08.055Z,1005.79
2016-05-08T10:29:07.871Z,1005.82
2016-05-08T10:30:07.874Z,1005.79
2016-05-08T10:31:07.877Z,1005.76
2016-05-08T10:32:07.879Z,1005.8
2016-05-08T10:33:07.882Z,1005.79
2016-05-08T10:34:07.885Z,1005.75
2016-05-08T10:35:07.887Z,1005.8
2016-05-08T10:36:08.093Z,1005.78
2016-05-08T10:37:07.892Z,1005.75
2016-05-08T10:38:07.895Z,1005.74
2016-05-08T10:39:07.898Z,1005.77
2016-05-08T10:40:07.900Z,1005.74
2016-05-08T10:41:07.903Z,1005.74
2016-05-08T10:42:07.921Z,1005.69
2016-05-08T10:43:07.924Z,1005.69
2016-05-08T10:44:07.926Z,1005.72
2016-05-08T10:45:07.929Z,1005.72
2016-05-08T10:46:07.932Z,1005.68
2016-05-08T10:47:07.935Z,1005.75
2016-05-08T10:48:07.937Z,1005.7
2016-05-08T10:49:07.940Z,1005.72
2016-05-08T10:50:07.943Z,1005.67
2016-05-08T10:51:07.962Z,1005.66
2016-05-08T10:52:07.964Z,1005.7
2016-05-08T10:53:07.967Z,1005.66
2016-05-08T10:54:07.969Z,1005.6
2016-05-08T10:55:07.972Z,1005.61
2016-05-08T10:56:07.975Z,1005.56
2016-05-08T10:57:08.009Z,1005.66
2016-05-08T10:58:07.980Z,1005.6
2016-05-08T10:59:07.999Z,1005.56
2016-05-08T11:00:08.002Z,1005.59
2016-05-08T11:01:08.004Z,1005.57
2016-05-08T11:02:08.007Z,1005.59
2016-05-08T11:03:08.024Z,1005.63
2016-05-08T11:04:08.012Z,1005.58
2016-05-08T11:05:08.014Z,1005.55
2016-05-08T11:06:08.032Z,1005.61
2016-05-08T11:07:08.036Z,1005.54
2016-05-08T11:08:08.038Z,1005.52
2016-05-08T11:09:08.040Z,1005.6
2016-05-08T11:10:08.043Z,1005.52
2016-05-08T11:11:08.046Z,1005.57
2016-05-08T11:12:08.065Z,1005.6
2016-05-08T11:13:08.067Z,1005.6
2016-05-08T11:14:08.070Z,1005.58
2016-05-08T11:15:08.073Z,1005.56
2016-05-08T11:16:08.076Z,1005.52
2016-05-08T11:17:08.079Z,1005.52
2016-05-08T11:18:08.081Z,1005.57
2016-05-08T11:19:08.084Z,1005.52
2016-05-08T11:20:08.101Z,1005.49
2016-05-08T11:21:08.104Z,1005.48
2016-05-08T11:22:08.106Z,1005.51
2016-05-08T11:23:08.109Z,1005.53
2016-05-08T11:24:08.112Z,1005.51
2016-05-08T11:25:08.115Z,1005.54
2016-05-08T11:26:08.133Z,1005.53
2016-05-08T11:27:08.136Z,1005.52
2016-05-08T11:28:08.139Z,1005.47
2016-05-08T11:29:08.141Z,1005.44
2016-05-08T11:30:08.144Z,1005.49
2016-05-08T11:31:08.146Z,1005.49
2016-05-08T11:32:08.166Z,1005.47
2016-05-08T11:33:08.169Z,1005.47
2016-05-08T11:34:08.171Z,1005.47
2016-05-08T11:35:08.174Z,1005.44
2016-05-08T11:36:08.191Z,1005.44
2016-05-08T11:37:08.194Z,1005.44
2016-05-08T11:38:08.182Z,1005.36
2016-05-08T11:39:08.199Z,1005.45
2016-05-08T11:40:08.202Z,1005.48
2016-05-08T11:41:08.205Z,1005.44
2016-05-08T11:42:08.223Z,1005.49
2016-05-08T11:43:08.226Z,1005.45
2016-05-08T11:44:08.229Z,1005.42
2016-05-08T11:45:08.231Z,1005.38
2016-05-08T11:46:08.234Z,1005.41
2016-05-08T11:47:08.236Z,1005.39
2016-05-08T11:48:08.272Z,1005.33
2016-05-08T11:49:08.333Z,1005.36
2016-05-08T11:50:08.377Z,1005.34
2016-05-08T11:51:08.422Z,1005.35
2016-05-08T11:52:08.466Z,1005.27
2016-05-08T11:53:08.490Z,1005.36
2016-05-08T11:54:08.508Z,1005.31
2016-05-08T11:55:08.540Z,1005.23
2016-05-08T11:56:08.574Z,1005.18
2016-05-08T11:57:08.575Z,1005.26
2016-05-08T11:58:08.586Z,1005.32
2016-05-08T11:59:08.594Z,1005.25
2016-05-08T12:00:08.602Z,1005.26
2016-05-08T12:01:08.626Z,1005.27
2016-05-08T12:02:08.634Z,1005.25
2016-05-08T12:03:08.640Z,1005.21
2016-05-08T12:04:08.644Z,1005.25
2016-05-08T12:05:08.649Z,1005.19
2016-05-08T12:06:08.653Z,1005.24
2016-05-08T12:07:08.658Z,1005.23
2016-05-08T12:08:08.676Z,1005.19
2016-05-08T12:09:08.680Z,1005.19